Time;durP1;ratioP1;P1;durP2;ratioP2;P2;SDS_P1;SDS_P2;PMS_P1;PMS_P2;Temp;Humidity;BMP_temperature;BMP_pressure;BME280_temperature;BME280_humidity;BME280_pressure;Samples;Min_cycle;Max_cycle;Signal;HPM_P1;HPM_P2
2022/06/19 00:01:32;;;;;;;31.57;28.83;;;24.10;62.10;;;;;;4978337;28;20470;-67
2022/06/19 00:04:04;;;;;;;31.47;28.50;;;24.10;62.30;;;;;;4973013;28;20457;-67
2022/06/19 00:06:31;;;;;;;31.33;28.63;;;24.10;62.70;;;;;;4975440;28;20490;-67
2022/06/19 00:08:58;;;;;;;31.23;28.70;;;24.10;62.60;;;;;;4978431;28;22694;-67
2022/06/19 00:11:25;;;;;;;31.70;28.90;;;24.00;62.50;;;;;;4972727;28;20862;-67
2022/06/19 00:13:52;;;;;;;31.67;28.73;;;24.00;62.60;;;;;;4970255;28;20547;-67
2022/06/19 00:16:19;;;;;;;31.20;28.80;;;24.00;62.60;;;;;;4970070;28;20508;-67
2022/06/19 00:18:46;;;;;;;33.10;29.70;;;23.90;62.60;;;;;;4974619;28;20551;-67
2022/06/19 00:21:17;;;;;;;32.00;28.97;;;23.90;62.80;;;;;;4973225;28;20475;-67
2022/06/19 00:23:44;;;;;;;31.43;28.73;;;23.90;63.10;;;;;;4983551;28;20464;-67
2022/06/19 00:26:11;;;;;;;32.20;29.53;;;23.80;63.10;;;;;;4978819;28;20452;-67
2022/06/19 00:28:39;;;;;;;31.13;28.47;;;23.70;63.10;;;;;;4971618;28;20457;-67
2022/06/19 00:31:06;;;;;;;31.07;28.70;;;23.70;62.90;;;;;;4974758;28;21254;-69
2022/06/19 00:33:33;;;;;;;30.70;28.50;;;23.70;62.90;;;;;;4975085;28;20990;-71
2022/06/19 00:36:00;;;;;;;31.87;28.90;;;23.60;63.10;;;;;;4968433;28;20481;-69
2022/06/19 00:38:29;;;;;;;31.40;28.60;;;23.70;63.00;;;;;;4964223;28;21033;-71
2022/06/19 00:40:57;;;;;;;30.50;28.30;;;23.60;63.00;;;;;;4968313;28;20555;-70
2022/06/19 00:43:24;;;;;;;30.60;27.90;;;23.60;62.90;;;;;;4971443;28;20464;-70
2022/06/19 00:45:51;;;;;;;30.20;27.70;;;23.60;62.70;;;;;;4966428;28;20452;-69
2022/06/19 00:48:22;;;;;;;31.13;28.50;;;23.50;63.00;;;;;;4970988;28;20480;-69
2022/06/19 00:50:52;;;;;;;31.93;28.93;;;23.60;63.20;;;;;;4969485;28;20551;-69
2022/06/19 00:53:23;;;;;;;30.57;27.97;;;23.50;63.40;;;;;;4972379;28;20495;-70
2022/06/19 00:55:52;;;;;;;30.57;28.30;;;23.50;63.40;;;;;;4970050;28;20583;-72
2022/06/19 00:58:24;;;;;;;30.63;28.20;;;23.40;63.60;;;;;;4976464;28;20802;-69
2022/06/19 01:00:55;;;;;;;32.77;30.17;;;23.30;63.60;;;;;;4970307;28;20517;-70
2022/06/19 01:03:26;;;;;;;31.53;29.10;;;23.30;64.10;;;;;;4962293;28;20543;-69
2022/06/19 01:05:54;;;;;;;32.17;29.17;;;23.10;64.60;;;;;;4977091;28;20454;-69
2022/06/19 01:08:21;;;;;;;31.13;28.70;;;23.10;64.80;;;;;;4974077;28;20458;-69
2022/06/19 01:10:52;;;;;;;31.63;28.53;;;23.10;64.90;;;;;;4970198;28;20553;-69
2022/06/19 01:13:22;;;;;;;29.40;27.20;;;23.00;64.50;;;;;;4971427;28;20473;-69
2022/06/19 01:15:50;;;;;;;29.60;27.50;;;23.00;64.80;;;;;;4971241;28;20565;-71
2022/06/19 01:18:18;;;;;;;30.57;27.90;;;23.00;64.80;;;;;;4975220;28;20465;-70
2022/06/19 01:20:45;;;;;;;29.47;27.27;;;22.90;65.10;;;;;;4960545;28;20464;-71
2022/06/19 01:23:21;;;;;;;30.10;27.80;;;22.90;64.90;;;;;;4965123;28;20474;-70
2022/06/19 01:25:51;;;;;;;29.13;26.70;;;22.90;64.60;;;;;;4962241;28;20549;-69
2022/06/19 01:31:10;;;;;;;29.20;27.30;;;22.80;65.10;;;;;;4977383;28;20582;-69
2022/06/19 01:33:48;;;;;;;30.17;27.23;;;22.80;65.40;;;;;;4967281;28;20533;-66
2022/06/19 01:36:18;;;;;;;30.07;28.07;;;22.70;65.80;;;;;;4975715;28;20950;-73
2022/06/19 01:38:48;;;;;;;30.07;27.57;;;22.70;65.90;;;;;;4967877;28;20493;-69
2022/06/19 01:41:22;;;;;;;30.00;27.80;;;22.60;65.70;;;;;;4954512;28;20459;-69
2022/06/19 01:43:50;;;;;;;30.63;27.97;;;22.60;65.80;;;;;;4964111;28;20451;-70
2022/06/19 01:46:18;;;;;;;29.77;27.33;;;22.50;66.00;;;;;;4982892;28;20855;-68
2022/06/19 01:48:45;;;;;;;30.17;27.50;;;22.40;66.10;;;;;;4975044;28;20802;-70
2022/06/19 01:51:13;;;;;;;30.10;27.77;;;22.40;66.20;;;;;;4969775;28;20528;-69
2022/06/19 01:53:45;;;;;;;30.67;27.93;;;22.40;66.10;;;;;;4968472;28;20459;-69
2022/06/19 01:56:13;;;;;;;31.30;28.00;;;22.40;65.90;;;;;;4973889;28;20489;-69
2022/06/19 01:58:45;;;;;;;28.83;26.73;;;22.40;65.90;;;;;;4969938;28;20463;-68
2022/06/19 02:01:13;;;;;;;28.20;26.10;;;22.30;65.90;;;;;;4970198;28;20549;-71
2022/06/19 02:03:45;;;;;;;29.20;26.80;;;22.30;65.70;;;;;;4965133;28;20456;-69
2022/06/19 02:06:15;;;;;;;29.97;27.80;;;22.30;65.70;;;;;;4971857;28;20478;-70
2022/06/19 02:08:42;;;;;;;30.30;27.80;;;22.30;65.60;;;;;;4971853;28;20492;-71
2022/06/19 02:11:11;;;;;;;30.43;28.23;;;22.40;65.50;;;;;;4965972;28;20475;-69
2022/06/19 02:13:41;;;;;;;29.83;27.33;;;22.40;65.70;;;;;;4963642;28;20470;-70
2022/06/19 02:16:11;;;;;;;31.17;28.30;;;22.40;65.50;;;;;;4978861;28;20581;-69
2022/06/19 02:18:42;;;;;;;29.70;27.40;;;22.30;65.50;;;;;;4962477;28;20463;-68
2022/06/19 02:21:14;;;;;;;29.57;27.00;;;22.30;65.70;;;;;;4970407;28;20567;-69
2022/06/19 02:23:40;;;;;;;29.63;27.30;;;22.30;65.90;;;;;;4958174;28;20461;-69
2022/06/19 02:26:10;;;;;;;29.80;27.20;;;22.20;66.20;;;;;;4976233;28;20520;-69
2022/06/19 02:28:38;;;;;;;29.43;27.20;;;22.20;66.50;;;;;;4970803;28;20512;-68
2022/06/19 02:31:07;;;;;;;29.47;27.20;;;22.20;66.60;;;;;;4967543;28;20463;-69
2022/06/19 02:33:41;;;;;;;29.27;27.20;;;22.10;66.90;;;;;;4963639;28;20532;-69
2022/06/19 02:36:35;;;;;;;30.50;27.57;;;22.10;66.90;;;;;;4971333;28;20670;-70
2022/06/19 02:39:31;;;;;;;29.73;27.53;;;22.10;66.50;;;;;;4964510;28;20887;-69
2022/06/19 02:42:06;;;;;;;29.13;27.03;;;22.00;66.40;;;;;;4969207;28;20972;-69
2022/06/19 02:44:35;;;;;;;30.73;27.87;;;22.00;66.30;;;;;;4962259;28;20492;-69
2022/06/19 02:47:05;;;;;;;30.00;27.53;;;22.00;66.60;;;;;;4978225;28;20532;-69
2022/06/19 02:49:33;;;;;;;30.87;27.40;;;22.00;66.60;;;;;;4963789;28;20805;-70
2022/06/19 02:52:01;;;;;;;28.73;26.50;;;21.90;66.50;;;;;;4962348;28;20452;-69
2022/06/19 02:54:28;;;;;;;29.83;26.67;;;22.00;66.30;;;;;;4962849;28;20464;-70
2022/06/19 02:56:55;;;;;;;27.70;25.43;;;22.00;66.20;;;;;;4975260;28;20499;-69
2022/06/19 02:59:22;;;;;;;30.70;28.33;;;22.00;66.40;;;;;;4968903;28;20456;-70
2022/06/19 03:01:49;;;;;;;28.97;26.70;;;22.00;66.30;;;;;;4977319;28;21663;-70
2022/06/19 03:04:24;;;;;;;29.83;27.60;;;22.00;66.60;;;;;;4962122;28;20462;-70
2022/06/19 03:06:51;;;;;;;29.57;27.40;;;22.00;66.50;;;;;;4958779;28;20840;-69
2022/06/19 03:09:18;;;;;;;28.70;26.70;;;21.90;66.60;;;;;;4961316;28;20806;-71
2022/06/19 03:11:45;;;;;;;29.30;27.20;;;21.90;66.70;;;;;;4970586;28;20519;-69
2022/06/19 03:14:12;;;;;;;29.60;27.37;;;21.90;66.50;;;;;;4961130;28;20551;-70
2022/06/19 03:16:39;;;;;;;29.67;27.57;;;21.90;66.70;;;;;;4968431;28;20872;-69
2022/06/19 03:19:07;;;;;;;30.50;28.20;;;21.80;67.00;;;;;;4966959;28;20949;-69
2022/06/19 03:21:35;;;;;;;29.20;27.23;;;21.80;67.30;;;;;;4972031;28;20463;-69
2022/06/19 03:24:02;;;;;;;30.30;27.70;;;21.80;67.40;;;;;;4968547;28;20897;-69
2022/06/19 03:26:30;;;;;;;30.67;27.70;;;21.70;67.70;;;;;;4971086;28;20483;-69
2022/06/19 03:28:57;;;;;;;30.37;27.70;;;21.80;67.70;;;;;;4958188;28;20496;-72
2022/06/19 03:31:26;;;;;;;29.93;27.60;;;21.70;67.80;;;;;;4965757;28;20471;-69
2022/06/19 03:33:53;;;;;;;30.43;27.80;;;21.60;68.00;;;;;;4978254;28;20564;-70
2022/06/19 03:36:21;;;;;;;32.67;30.37;;;21.70;68.00;;;;;;4967652;28;20490;-69
2022/06/19 03:38:50;;;;;;;30.47;27.97;;;21.70;67.80;;;;;;4967181;28;20540;-71
2022/06/19 03:41:17;;;;;;;31.40;28.80;;;21.80;67.40;;;;;;4973508;28;20568;-69
2022/06/19 03:43:44;;;;;;;29.80;27.50;;;21.80;67.40;;;;;;4979440;28;20465;-69
2022/06/19 03:46:14;;;;;;;29.53;27.40;;;21.90;66.80;;;;;;4965984;28;20526;-69
2022/06/19 03:48:41;;;;;;;29.87;27.53;;;22.00;66.80;;;;;;4964082;28;21041;-69
2022/06/19 03:51:09;;;;;;;29.97;27.17;;;22.10;66.40;;;;;;4967522;28;21026;-69
2022/06/19 03:53:37;;;;;;;30.57;28.27;;;22.20;66.10;;;;;;4978343;28;20549;-69
2022/06/19 03:56:07;;;;;;;30.93;28.60;;;22.30;65.70;;;;;;4974044;28;20601;-70
2022/06/19 03:58:46;;;;;;;32.70;29.50;;;22.40;65.20;;;;;;4963677;28;20978;-69
2022/06/19 04:01:14;;;;;;;30.60;27.87;;;22.50;65.00;;;;;;4973744;28;20555;-69
2022/06/19 04:03:41;;;;;;;29.63;27.33;;;22.80;64.20;;;;;;4962478;28;20475;-69
2022/06/19 04:06:10;;;;;;;30.10;27.60;;;22.80;64.00;;;;;;4970001;28;20551;-70
2022/06/19 04:08:37;;;;;;;30.17;27.87;;;22.90;64.00;;;;;;4956887;28;20460;-70
2022/06/19 04:11:07;;;;;;;31.03;27.80;;;22.90;63.80;;;;;;4966058;28;20462;-70
2022/06/19 04:13:34;;;;;;;29.60;27.23;;;23.00;63.70;;;;;;4968803;28;21011;-69
2022/06/19 04:16:02;;;;;;;29.33;27.03;;;23.10;63.20;;;;;;4957154;28;21080;-69
2022/06/19 04:18:30;;;;;;;29.80;27.33;;;23.30;62.70;;;;;;4965728;28;20976;-70
2022/06/19 04:20:58;;;;;;;29.80;27.50;;;23.30;63.30;;;;;;4970145;28;20462;-69
2022/06/19 04:23:25;;;;;;;28.70;26.43;;;23.30;62.80;;;;;;4956525;28;20461;-69
2022/06/19 04:25:52;;;;;;;30.00;27.30;;;23.50;62.40;;;;;;4965259;28;20910;-70
2022/06/19 04:28:24;;;;;;;29.93;27.53;;;23.60;62.10;;;;;;4968625;28;20771;-69
2022/06/19 04:30:51;;;;;;;29.17;26.97;;;23.70;62.00;;;;;;4966981;28;20953;-69
2022/06/19 04:33:20;;;;;;;29.30;26.83;;;23.90;61.30;;;;;;4967223;28;20468;-69
2022/06/19 04:35:48;;;;;;;29.77;27.10;;;24.00;60.80;;;;;;4964105;28;20459;-69
2022/06/19 04:38:15;;;;;;;30.60;28.00;;;24.10;60.80;;;;;;4963439;28;20480;-69
2022/06/19 04:40:42;;;;;;;29.40;27.20;;;24.20;60.50;;;;;;4972088;28;20565;-69
2022/06/19 04:43:11;;;;;;;30.30;27.80;;;24.30;60.50;;;;;;4971685;28;20552;-69
2022/06/19 04:45:40;;;;;;;29.70;27.17;;;24.40;60.20;;;;;;4973258;28;20553;-70
2022/06/19 04:48:08;;;;;;;30.17;27.47;;;24.50;60.30;;;;;;4970151;28;20621;-69
2022/06/19 04:50:34;;;;;;;30.43;27.70;;;24.60;60.30;;;;;;4976565;28;20541;-69
2022/06/19 04:53:01;;;;;;;31.20;28.63;;;24.70;59.60;;;;;;4972011;28;20529;-69
2022/06/19 04:55:28;;;;;;;31.10;28.70;;;24.80;59.70;;;;;;4974732;28;20474;-69
2022/06/19 04:58:01;;;;;;;29.93;27.83;;;24.90;59.30;;;;;;4974361;28;20492;-69
2022/06/19 05:00:28;;;;;;;32.20;29.40;;;25.00;59.30;;;;;;4961244;28;20474;-69
2022/06/19 05:02:56;;;;;;;30.47;28.07;;;25.00;59.30;;;;;;4975208;28;20475;-69
2022/06/19 05:05:23;;;;;;;32.13;29.07;;;25.10;58.80;;;;;;4971054;28;20455;-69
2022/06/19 05:07:50;;;;;;;31.40;28.40;;;25.20;59.00;;;;;;4970545;28;20480;-71
2022/06/19 05:10:18;;;;;;;30.90;28.53;;;25.30;58.70;;;;;;4966323;28;20459;-69
2022/06/19 05:12:45;;;;;;;32.53;29.53;;;25.40;58.60;;;;;;4975091;28;20473;-70
2022/06/19 05:15:12;;;;;;;31.40;28.70;;;25.50;58.30;;;;;;4971009;28;20474;-70
2022/06/19 05:17:39;;;;;;;31.90;29.20;;;25.60;58.40;;;;;;4971071;28;20483;-69
2022/06/19 05:20:08;;;;;;;33.10;30.47;;;25.70;58.20;;;;;;4970162;28;20825;-70
2022/06/19 05:22:35;;;;;;;31.50;28.50;;;25.80;57.90;;;;;;4965082;28;20564;-72
2022/06/19 05:25:04;;;;;;;32.67;29.93;;;25.90;58.10;;;;;;4968920;28;20466;-69
2022/06/19 05:27:31;;;;;;;32.00;29.03;;;26.00;57.60;;;;;;4977452;28;20478;-71
2022/06/19 05:29:58;;;;;;;31.97;29.20;;;26.10;57.00;;;;;;4971466;28;20455;-69
2022/06/19 05:32:26;;;;;;;32.63;29.93;;;26.20;56.70;;;;;;4976830;28;20469;-69
2022/06/19 05:34:53;;;;;;;31.80;28.87;;;26.30;56.50;;;;;;4969788;28;20455;-69
2022/06/19 05:37:22;;;;;;;31.50;28.90;;;26.40;56.40;;;;;;4971327;28;20497;-70
2022/06/19 05:39:48;;;;;;;30.87;28.53;;;26.40;56.50;;;;;;4971063;28;20461;-69
2022/06/19 05:42:16;;;;;;;30.73;28.27;;;26.40;56.30;;;;;;4977189;28;20803;-70
2022/06/19 05:44:43;;;;;;;31.20;28.20;;;26.40;56.00;;;;;;4966376;28;21004;-69
2022/06/19 05:47:10;;;;;;;31.00;28.40;;;26.40;56.00;;;;;;4971171;28;20502;-69
2022/06/19 05:49:37;;;;;;;31.60;28.90;;;26.40;56.70;;;;;;4972353;28;20549;-69
2022/06/19 05:52:13;;;;;;;31.83;28.80;;;26.50;55.70;;;;;;4965433;28;20455;-70
2022/06/19 05:54:41;;;;;;;31.57;28.60;;;26.60;55.50;;;;;;4975973;28;20473;-70
2022/06/19 05:57:08;;;;;;;33.13;30.17;;;26.80;55.80;;;;;;4976333;28;20487;-69
2022/06/19 05:59:35;;;;;;;32.97;29.97;;;26.90;55.20;;;;;;4972765;28;20822;-70
2022/06/19 06:02:02;;;;;;;32.40;29.20;;;26.90;55.30;;;;;;4968355;28;20464;-69
2022/06/19 06:04:29;;;;;;;32.40;29.27;;;26.90;55.30;;;;;;4971152;28;20490;-67
2022/06/19 06:06:56;;;;;;;33.07;29.80;;;27.00;55.40;;;;;;4969211;28;20556;-67
2022/06/19 06:09:23;;;;;;;31.70;28.80;;;27.10;55.20;;;;;;4967725;28;20560;-68
2022/06/19 06:11:51;;;;;;;34.37;31.70;;;27.20;54.90;;;;;;4972931;28;20549;-67
2022/06/19 06:14:18;;;;;;;34.50;31.60;;;27.30;54.50;;;;;;4974772;28;20564;-67
2022/06/19 06:16:45;;;;;;;32.57;30.07;;;27.30;54.80;;;;;;4960521;28;20494;-68
2022/06/19 06:19:12;;;;;;;33.97;31.17;;;27.50;54.50;;;;;;4964979;28;20458;-67
2022/06/19 06:21:39;;;;;;;32.83;30.13;;;27.60;54.50;;;;;;4969532;28;20977;-67
2022/06/19 06:24:06;;;;;;;33.17;30.20;;;27.80;53.90;;;;;;4967797;28;20489;-66
2022/06/19 06:26:34;;;;;;;34.30;31.00;;;27.90;53.90;;;;;;4972719;28;21023;-67
2022/06/19 06:29:02;;;;;;;33.30;30.40;;;28.20;53.70;;;;;;4963404;28;20550;-67
2022/06/19 06:31:30;;;;;;;32.10;29.33;;;28.30;53.20;;;;;;4971444;28;21001;-68
2022/06/19 06:33:57;;;;;;;32.45;29.45;;;28.40;53.00;;;;;;4965628;28;20468;-71
2022/06/19 06:36:24;;;;;;;32.80;30.00;;;28.60;52.60;;;;;;4963118;28;20223;-68
2022/06/19 06:38:51;;;;;;;33.40;30.50;;;28.60;52.50;;;;;;4967900;28;20968;-67
2022/06/19 06:41:18;;;;;;;35.37;32.50;;;28.80;52.20;;;;;;4966674;28;20459;-67
2022/06/19 06:43:47;;;;;;;32.97;30.03;;;28.80;52.20;;;;;;4963621;28;21072;-67
2022/06/19 06:46:19;;;;;;;32.50;29.60;;;28.90;52.00;;;;;;4963443;28;20621;-68
2022/06/19 06:48:47;;;;;;;32.13;29.23;;;29.00;51.90;;;;;;4966685;28;20463;-68
2022/06/19 06:51:16;;;;;;;33.93;30.07;;;29.00;52.20;;;;;;4966997;28;20455;-68
2022/06/19 06:53:43;;;;;;;33.43;30.10;;;29.30;52.10;;;;;;4968617;28;20451;-70
2022/06/19 06:56:11;;;;;;;34.80;31.97;;;29.40;52.10;;;;;;4973196;28;20563;-69
2022/06/19 06:58:39;;;;;;;31.20;28.20;;;29.60;51.60;;;;;;4963835;28;20501;-70
2022/06/19 07:01:08;;;;;;;31.00;28.33;;;29.70;51.80;;;;;;4979388;28;20516;-71
2022/06/19 07:03:37;;;;;;;34.20;30.90;;;29.90;51.10;;;;;;4964036;28;20477;-70
2022/06/19 07:06:04;;;;;;;32.53;29.33;;;30.10;50.90;;;;;;4965143;28;20914;-71
2022/06/19 07:08:30;;;;;;;33.67;30.40;;;30.40;50.30;;;;;;4956618;28;20558;-71
2022/06/19 07:10:57;;;;;;;34.13;30.70;;;30.50;49.50;;;;;;4971733;28;20545;-71
2022/06/19 07:13:25;;;;;;;32.90;29.93;;;30.60;49.70;;;;;;4966211;28;20570;-71
2022/06/19 07:15:51;;;;;;;34.70;31.00;;;30.70;50.00;;;;;;4968241;28;20932;-72
2022/06/19 07:18:19;;;;;;;34.00;31.07;;;30.80;49.50;;;;;;4963081;28;20486;-72
2022/06/19 07:20:47;;;;;;;34.83;31.50;;;30.90;49.50;;;;;;4969612;28;20726;-72
2022/06/19 07:23:14;;;;;;;33.50;30.70;;;31.00;49.90;;;;;;4973120;28;20546;-71
2022/06/19 07:25:41;;;;;;;34.77;32.10;;;31.10;50.00;;;;;;4966162;28;20487;-71
2022/06/19 07:28:09;;;;;;;33.63;30.60;;;31.20;49.70;;;;;;4962165;28;20921;-71
2022/06/19 07:30:36;;;;;;;32.90;29.97;;;31.30;49.90;;;;;;4965815;28;20773;-70
2022/06/19 07:33:03;;;;;;;32.20;29.60;;;31.30;50.00;;;;;;4974148;28;20458;-69
2022/06/19 07:35:30;;;;;;;36.23;31.80;;;31.30;50.00;;;;;;4966388;28;20495;-71
2022/06/19 07:37:59;;;;;;;33.27;30.43;;;31.30;49.90;;;;;;4969496;28;20489;-70
2022/06/19 07:40:26;;;;;;;34.00;31.00;;;31.40;49.90;;;;;;4965162;28;20604;-69
2022/06/19 07:42:54;;;;;;;34.77;31.10;;;31.40;49.40;;;;;;4967909;28;20462;-69
2022/06/19 07:45:21;;;;;;;36.60;33.67;;;31.40;49.40;;;;;;4959574;28;20502;-69
2022/06/19 07:50:33;;;;;;;33.20;30.37;;;31.50;50.20;;;;;;4967649;28;21110;-75
2022/06/19 07:53:03;;;;;;;32.83;29.90;;;31.50;50.30;;;;;;4971229;28;20459;-73
2022/06/19 07:55:31;;;;;;;35.57;32.53;;;31.60;50.20;;;;;;4967018;28;20482;-74
2022/06/19 07:58:00;;;;;;;33.03;30.40;;;31.60;50.50;;;;;;4964501;28;20486;-69
2022/06/19 08:00:30;;;;;;;34.23;31.23;;;31.70;50.80;;;;;;4964740;28;20811;-70
2022/06/19 08:02:58;;;;;;;34.67;30.90;;;31.70;51.20;;;;;;4966055;28;20470;-70
2022/06/19 08:05:29;;;;;;;35.10;31.73;;;31.70;51.80;;;;;;4968059;28;20550;-69
2022/06/19 08:07:58;;;;;;;35.83;32.23;;;31.80;51.80;;;;;;4965071;28;20865;-69
2022/06/19 08:10:29;;;;;;;36.07;32.47;;;31.90;51.50;;;;;;4966394;28;20629;-69
2022/06/19 08:12:57;;;;;;;35.87;32.57;;;32.00;50.80;;;;;;4963692;28;20542;-72
2022/06/19 08:15:24;;;;;;;36.30;33.50;;;32.20;50.40;;;;;;4965859;28;20463;-70
2022/06/19 08:17:52;;;;;;;37.13;33.83;;;32.30;49.80;;;;;;4961943;28;20597;-72
2022/06/19 08:20:21;;;;;;;37.67;34.50;;;32.40;49.30;;;;;;4971046;28;20541;-71
2022/06/19 08:22:48;;;;;;;39.50;36.30;;;32.50;48.90;;;;;;4970270;28;20546;-74
2022/06/19 08:25:17;;;;;;;37.70;34.60;;;32.60;48.50;;;;;;4966489;28;20545;-72
2022/06/19 08:27:48;;;;;;;37.87;34.87;;;32.80;47.90;;;;;;4967602;28;20548;-71
2022/06/19 08:30:18;;;;;;;39.83;36.53;;;32.90;47.30;;;;;;4969054;28;20547;-69
2022/06/19 08:32:45;;;;;;;38.33;35.00;;;33.00;46.40;;;;;;4973686;28;20545;-69
2022/06/19 08:35:12;;;;;;;37.60;34.60;;;33.00;46.50;;;;;;4970234;28;20553;-72
2022/06/19 08:37:41;;;;;;;39.10;35.60;;;33.00;46.60;;;;;;4965507;28;20485;-72
2022/06/19 08:40:15;;;;;;;39.47;36.27;;;33.10;45.50;;;;;;4968038;28;20463;-71
2022/06/19 08:42:57;;;;;;;39.07;35.97;;;33.00;45.60;;;;;;4964072;28;20462;-71
2022/06/19 08:45:38;;;;;;;39.23;36.20;;;33.10;45.10;;;;;;4966252;28;20545;-74
2022/06/19 08:48:31;;;;;;;39.13;35.53;;;33.20;44.20;;;;;;4962437;28;20833;-71
2022/06/19 08:51:03;;;;;;;38.97;36.07;;;33.30;44.40;;;;;;4966816;28;20469;-71
2022/06/19 08:53:49;;;;;;;40.50;37.50;;;33.30;43.20;;;;;;4971777;28;20566;-71
2022/06/19 08:56:23;;;;;;;38.57;35.73;;;33.30;42.90;;;;;;4968622;28;20521;-72
2022/06/19 08:58:59;;;;;;;39.43;36.20;;;33.40;42.20;;;;;;4968017;28;20493;-72
2022/06/19 09:01:34;;;;;;;37.50;34.57;;;33.70;40.80;;;;;;4965149;28;20469;-71
2022/06/19 09:06:59;;;;;;;39.10;35.97;;;33.70;39.90;;;;;;4966953;28;20525;-71
2022/06/19 09:09:58;;;;;;;41.93;38.47;;;33.90;39.30;;;;;;4967572;28;20467;-71
2022/06/19 09:12:37;;;;;;;38.17;35.03;;;33.90;39.60;;;;;;4938333;28;20459;-72
2022/06/19 09:15:12;;;;;;;38.87;35.60;;;34.00;38.70;;;;;;4964012;28;20556;-71
2022/06/19 09:17:54;;;;;;;39.30;36.00;;;34.20;38.70;;;;;;4964432;28;20976;-71
2022/06/19 09:20:31;;;;;;;36.53;33.43;;;34.30;37.40;;;;;;4958877;28;20477;-74
2022/06/19 09:23:30;;;;;;;37.60;34.50;;;34.20;37.00;;;;;;4953366;28;20545;-73
2022/06/19 09:26:02;;;;;;;36.50;33.70;;;34.40;36.80;;;;;;4959303;28;20554;-71
2022/06/19 09:28:35;;;;;;;36.40;33.80;;;34.50;36.70;;;;;;4963634;28;20521;-71
2022/06/19 09:31:09;;;;;;;40.60;37.30;;;34.50;36.80;;;;;;4967152;28;20451;-71
2022/06/19 09:33:43;;;;;;;38.10;35.00;;;34.60;37.00;;;;;;4970870;28;20562;-71
2022/06/19 09:36:16;;;;;;;35.73;32.83;;;34.60;36.40;;;;;;4967986;28;20468;-72
2022/06/19 09:38:47;;;;;;;35.37;32.70;;;34.60;35.70;;;;;;4964704;28;20514;-71
2022/06/19 09:41:19;;;;;;;40.90;37.90;;;34.60;35.10;;;;;;4964525;28;20561;-71
2022/06/19 09:43:52;;;;;;;36.60;33.97;;;34.60;35.40;;;;;;4964081;28;20551;-71
2022/06/19 09:46:24;;;;;;;35.97;33.30;;;34.40;35.50;;;;;;4964522;28;20486;-71
2022/06/19 09:48:58;;;;;;;37.97;34.77;;;34.40;35.70;;;;;;4970292;28;20451;-70
2022/06/19 09:51:33;;;;;;;34.87;31.77;;;34.50;35.40;;;;;;4964095;28;20467;-68
2022/06/19 09:54:05;;;;;;;35.60;32.80;;;34.60;34.40;;;;;;4958135;28;20466;-68
2022/06/19 09:56:38;;;;;;;34.00;31.60;;;34.60;34.00;;;;;;4964075;28;20650;-68
2022/06/19 09:59:13;;;;;;;38.17;35.33;;;34.60;34.20;;;;;;4957278;28;20562;-68
2022/06/19 10:01:44;;;;;;;36.40;33.60;;;34.70;34.30;;;;;;4969090;28;20477;-68
2022/06/19 10:04:16;;;;;;;36.60;33.30;;;34.80;34.30;;;;;;4968236;28;20470;-69
2022/06/19 10:06:48;;;;;;;37.07;34.17;;;34.90;34.40;;;;;;4968563;28;20478;-69
2022/06/19 10:09:24;;;;;;;37.00;34.10;;;34.90;34.50;;;;;;4967932;28;20451;-72
2022/06/19 10:11:56;;;;;;;34.93;31.73;;;34.90;34.80;;;;;;4968149;28;20549;-71
2022/06/19 10:14:32;;;;;;;35.53;32.77;;;34.80;34.20;;;;;;4965343;28;20466;-70
2022/06/19 10:17:04;;;;;;;35.73;32.83;;;34.90;34.50;;;;;;4963744;28;20484;-70
2022/06/19 10:19:41;;;;;;;37.13;34.37;;;34.70;34.60;;;;;;4968058;28;20479;-70
2022/06/19 10:22:23;;;;;;;37.23;34.43;;;34.50;34.90;;;;;;4958337;28;21182;-71
2022/06/19 10:25:23;;;;;;;35.03;32.13;;;34.60;35.10;;;;;;4967272;28;20460;-71
2022/06/19 10:28:00;;;;;;;36.20;33.50;;;34.80;34.70;;;;;;4962240;28;20506;-69
2022/06/19 10:30:35;;;;;;;35.53;32.43;;;34.70;34.60;;;;;;4957583;28;20485;-68
2022/06/19 10:33:25;;;;;;;40.37;37.00;;;34.50;34.90;;;;;;4964131;28;20458;-68
2022/06/19 10:35:58;;;;;;;36.03;33.07;;;34.80;35.00;;;;;;4967002;28;20952;-68
2022/06/19 10:38:46;;;;;;;36.53;33.80;;;35.00;34.40;;;;;;4968628;28;20562;-68
2022/06/19 10:44:13;;;;;;;37.47;34.43;;;35.10;34.10;;;;;;4968325;28;20458;-68
2022/06/19 10:46:41;;;;;;;35.87;32.87;;;35.30;34.30;;;;;;4961503;28;20978;-68
2022/06/19 10:49:18;;;;;;;38.93;35.93;;;35.40;33.70;;;;;;4966289;28;20486;-68
2022/06/19 10:51:59;;;;;;;36.23;33.03;;;35.40;33.80;;;;;;4966792;28;20542;-69
2022/06/19 10:54:50;;;;;;;35.97;32.87;;;35.50;34.50;;;;;;4963641;28;20495;-69
2022/06/19 10:57:22;;;;;;;36.33;33.33;;;35.60;33.90;;;;;;4962146;28;20617;-68
2022/06/19 10:59:49;;;;;;;36.63;33.20;;;35.70;33.40;;;;;;4965774;28;20565;-69
2022/06/19 11:05:23;;;;;;;36.30;33.30;;;35.80;33.10;;;;;;4968997;28;20450;-69
2022/06/19 11:07:50;;;;;;;36.17;33.17;;;35.60;32.50;;;;;;4964341;28;20979;-68
2022/06/19 11:10:19;;;;;;;37.30;34.27;;;35.60;33.30;;;;;;4964959;28;21061;-69
2022/06/19 11:12:56;;;;;;;37.40;34.33;;;35.60;33.20;;;;;;4961958;28;20499;-68
2022/06/19 11:15:30;;;;;;;35.40;32.60;;;35.80;33.20;;;;;;4968129;28;20801;-69
2022/06/19 11:18:16;;;;;;;35.67;32.60;;;35.90;33.00;;;;;;4965648;28;20557;-68
2022/06/19 11:20:57;;;;;;;35.60;32.37;;;36.00;32.60;;;;;;4963663;28;20459;-69
2022/06/19 11:23:29;;;;;;;38.27;35.30;;;36.10;33.10;;;;;;4956719;28;21073;-68
2022/06/19 11:26:01;;;;;;;38.17;34.80;;;36.20;32.40;;;;;;4968585;28;20800;-69
2022/06/19 11:28:51;;;;;;;35.93;33.20;;;36.20;32.50;;;;;;4963314;28;20825;-68
2022/06/19 11:31:21;;;;;;;35.60;32.40;;;36.20;32.10;;;;;;4966873;28;20529;-68
2022/06/19 11:33:52;;;;;;;38.30;35.03;;;36.10;32.40;;;;;;4967786;28;20463;-69
2022/06/19 11:36:35;;;;;;;34.93;32.20;;;36.20;32.70;;;;;;4968089;28;20586;-68
2022/06/19 11:39:23;;;;;;;34.67;32.00;;;36.20;32.40;;;;;;4967820;28;20483;-68
2022/06/19 11:41:50;;;;;;;35.50;32.57;;;36.30;32.10;;;;;;4967906;28;20558;-68
2022/06/19 11:44:19;;;;;;;33.60;31.00;;;36.10;32.70;;;;;;4961558;28;20826;-68
2022/06/19 11:46:50;;;;;;;35.40;32.60;;;36.20;32.40;;;;;;4968452;28;20573;-68
2022/06/19 11:49:36;;;;;;;34.60;32.10;;;36.30;31.70;;;;;;4964995;28;20558;-68
2022/06/19 11:52:07;;;;;;;37.90;34.47;;;35.90;32.20;;;;;;4964384;28;21009;-69
2022/06/19 11:54:41;;;;;;;34.20;31.90;;;36.10;32.70;;;;;;4966647;28;20499;-69
2022/06/19 11:57:20;;;;;;;34.90;32.43;;;36.10;32.30;;;;;;4959466;28;20945;-69
2022/06/19 11:59:47;;;;;;;34.70;32.13;;;36.20;32.50;;;;;;4963950;28;20924;-69
2022/06/19 12:02:26;;;;;;;36.67;34.17;;;36.20;32.50;;;;;;4964725;28;20542;-68
2022/06/19 12:04:56;;;;;;;37.07;34.17;;;36.40;32.30;;;;;;4965692;28;20837;-69
2022/06/19 12:07:27;;;;;;;35.73;33.07;;;36.40;32.40;;;;;;4966907;28;20566;-68
2022/06/19 12:09:58;;;;;;;35.60;32.97;;;36.50;32.50;;;;;;4962823;28;20546;-69
2022/06/19 12:12:26;;;;;;;35.57;32.57;;;36.50;32.40;;;;;;4963301;28;20451;-68
2022/06/19 12:14:57;;;;;;;35.43;32.73;;;36.30;32.70;;;;;;4963161;28;20586;-68
2022/06/19 12:17:27;;;;;;;36.83;33.63;;;36.40;32.80;;;;;;4967267;28;21106;-68
2022/06/19 12:19:57;;;;;;;35.63;32.73;;;36.60;32.50;;;;;;4964608;28;20485;-69
2022/06/19 12:22:36;;;;;;;37.10;34.17;;;36.80;32.20;;;;;;4967393;28;20463;-68
2022/06/19 12:25:11;;;;;;;35.50;32.77;;;36.90;32.10;;;;;;4956707;28;20467;-68
2022/06/19 12:27:45;;;;;;;35.67;33.07;;;36.70;31.80;;;;;;4964213;28;20486;-68
2022/06/19 12:30:20;;;;;;;36.50;33.13;;;36.50;32.10;;;;;;4967396;28;20451;-69
2022/06/19 12:32:51;;;;;;;36.27;33.30;;;36.50;32.50;;;;;;4965480;28;20565;-68
2022/06/19 12:35:25;;;;;;;35.53;32.60;;;36.50;32.10;;;;;;4961531;28;20570;-69
2022/06/19 12:37:53;;;;;;;36.60;33.10;;;36.50;32.20;;;;;;4963908;28;20483;-68
2022/06/19 12:40:24;;;;;;;35.90;32.67;;;36.50;32.00;;;;;;4967426;28;20499;-69
2022/06/19 12:42:59;;;;;;;43.90;40.70;;;36.40;32.30;;;;;;4966981;28;20550;-69
2022/06/19 12:45:39;;;;;;;35.23;32.23;;;36.50;32.00;;;;;;4965460;28;20537;-68
2022/06/19 12:48:19;;;;;;;34.97;32.07;;;36.60;31.40;;;;;;4961267;28;20518;-68
2022/06/19 12:50:54;;;;;;;34.70;32.10;;;36.50;31.30;;;;;;4965496;28;20459;-69
2022/06/19 12:53:54;;;;;;;36.70;33.50;;;36.40;31.90;;;;;;4959343;28;20463;-68
2022/06/19 12:56:33;;;;;;;36.50;33.30;;;36.60;32.20;;;;;;4962805;28;20485;-68
2022/06/19 12:59:21;;;;;;;38.27;34.67;;;36.60;31.50;;;;;;4965311;28;20477;-68
2022/06/19 13:01:56;;;;;;;36.20;33.03;;;36.70;31.40;;;;;;4965135;28;20465;-71